Details From GMML - HASSAN I
To GMMH - DAKHLA
Flight Number -
Tags generated
Created
Modified
Stats Distance 253 nm / 468 km
Max Altitude 30,700 ft / 9,357 m
Waypoints 4
Social Downloads 0
Likes 0
Share VATSIM

Download

Looking for another format? Having issues loading an existing format? Contact us
Advertisement - Login to hide

Notes

Basic altitude profile: - Ascent Rate: 2500ft/min - Ascent Speed: 250kts - Cruise Altitude: 35000ft - Cruise Speed: 420kts - Descent Rate: 1500ft/min - Descent Speed: 250kts Options: - Use NATs: yes - Use PACOTS: yes - Use low airways: yes - Use high airways: yes

Route

GMML ARENA A600F DKH GMMH

ID Type Via Altitude (ft/m) Position (lat/lon) Dist (leg/tot) Name
O GMML APT - 0 / 0 27.14365 / -13.22540 - / 0 nm HASSAN I
ARENA FIX - 30,700 / 9,357 25.72809 / -14.35859 104 / 104 nm
DKH VOR A600F (AWY-LO) 6,500 / 1,981 23.73977 / -15.92632 146 / 251 nm DAKHLA VOR-DME
O GMMH APT - 0 / 0 23.71829 / -15.93199 1 / 252 nm DAKHLA

Altitude Profile

Advertisement - Login to hide

Weather


0- 5 10 15 20 25 30 35+ Temperature / °C

Clouds and Precipitation
Forecast for 2018-12-16 06:00 UTC. Updated 5 hours ago

Ground ~20,000 ft ~40,000 ft Winds

GMML

Details ICAO GMML (EUN)
Name HASSAN I
Region Morocco
Timezone Africa/El_Aaiun (UTC+0.0)
Stats Elevation 207 ft / 63 m (AMSL)
Location 27.143700° -13.225400°
Runways 2
Magnetic Variation 3.845° W

METAR

GMML 160800Z 12008KT CAVOK 15/M00 Q1024 NOSIG

Decode

TAF

TAF GMML 160500Z 1606/1712 07009KT CAVOK PROB40 1612/1618 4000 SA

Decode

Departure Runways

ID Width Length Bearing (true/mag) Surface Threshold Overrun Markings Lighting
02 148 ft / 45 m 8,890 ft / 2,710 m 16.42° / 20.27° ASPHALT 0 ft / 0 m 200 ft / 61 m APP EDGE THRESHOLD
04 148 ft / 45 m 8,221 ft / 2,506 m 31.58° / 35.43° ASPHALT 0 ft / 0 m 0 ft / 0 m APP EDGE THRESHOLD
20 148 ft / 45 m 8,890 ft / 2,710 m 196.43° / 200.27° ASPHALT 0 ft / 0 m 200 ft / 61 m APP EDGE THRESHOLD
22 148 ft / 45 m 8,221 ft / 2,506 m 211.59° / 215.43° ASPHALT 0 ft / 0 m 658 ft / 201 m APP EDGE THRESHOLD

GMMH

Details ICAO GMMH (VIL)
Name Dakhla International
Region Morocco
Timezone Africa/El_Aaiun (UTC+0.0)
Stats Elevation 36 ft / 11 m (AMSL)
Location 23.718300° -15.931900°
Runways 1
Magnetic Variation 5.154° W

METAR

GMMH 160800Z 08007KT 6000 BKN005 17/15 Q1021 NOSIG

Decode

TAF

TAF GMMH 160500Z 1606/1712 04007KT 6000 FEW008 PROB40 1606/1609 2000 BR BECMG 1615/1617 BKN008 BECMG 1702/1705 CAVOK

Decode

Destination Runways

ID Width Length Bearing (true/mag) Surface Threshold Overrun Markings Lighting
03 142 ft / 43 m 9,834 ft / 2,997 m 22.69° / 27.84° ASPHALT 0 ft / 0 m 0 ft / 0 m PREC-APP EDGE THRESHOLD
21 142 ft / 43 m 9,834 ft / 2,997 m 202.69° / 207.85° ASPHALT 0 ft / 0 m 0 ft / 0 m PREC-APP EDGE THRESHOLD

Popular Alternatives